航空気象通報

ウインドサーファーのための航空気象通報による風予報です。

3/31-4/1の航空気象通報(国内、海外)

2008年03月31日 23時38分03秒 | TAF
羽田空港
TAF RJTT 310852Z 311812 30016KT 9999 FEW030
TEMPO 0009 32022G34KT
日本時間1日03-21時:300度から16ノットの風
但し、09-18時:一時、320度から22ノット、突風34ノット


那覇空港
TAF ROAH 310840Z 311812 04012KT 9999 FEW030
日本時間1日03-21時:040度から12ノットの風


マウイのカフルイ空港
PHOG 311130Z 311212 04012G18KT P6SM SCT250
FM1500 05011KT P6SM SCT250
FM1800 05012G20KT P6SM BKN250
FM2100 05020G28KT P6SM SCT050 BKN250
FM0300 05012G18KT P6SM SCT050
ハワイ時間31日02-05時:040度から12ノット、突風18ノット
05-08時:050度から11ノットの風

08-11時:050度から12ノット、突風20ノット
11-17時:050度から20ノット、突風28ノット

17時-1日02時:050度から12ノット、突風18ノット


サイパン空港
PGSN 311158Z 311212 17007KT P6SM VCSH SCT020
マリアナ時間31日22時-1日22時:170度から7ノットの風

コメント
この記事をはてなブックマークに追加

3/30-31の航空気象通報(国内、海外)

2008年03月30日 21時59分46秒 | TAF
羽田空港
TAF RJTT 300842Z 301812 36018KT 4000 -RA BR FEW004 BKN008 BKN015
TEMPO 1803 3000 RA BR FEW003 BKN005 BKN012
BECMG 0306 8000 NSW FEW015 SCT030 BKN050
TEMPO 0612 34020G30KT
日本時間31日03-21時:360度から18ノットの風
但し、15-21時:一時、340度から20ノット、突風30ノット
、但し、03-12時:一時、

那覇空港
TAF ROAH 300839Z 301812 36020KT 9999 FEW020 SCT040
日本時間31日03-21時:360度から20ノットの風


マウイのカフルイ空港
PHOG 301130Z 301212 05012G17KT P6SM BKN050 BKN250
FM2000 04018G28KT P6SM FEW035 SCT050
FM0700 05012KT P6SM SCT050
ハワイ時間30日02-10時:050度から12ノット、突風17ノット

10-21時:040度から18ノット、突風28ノット
21時-31日02時:050度から12ノットの風


サイパン空港
PGSN 301120Z 301212 08011KT P6SM VCSH SCT023
マリアナ時間30日22時-31日22時:080度から11ノットの風

コメント
この記事をはてなブックマークに追加

3/29-30の航空気象通報(国内、海外)

2008年03月29日 21時39分21秒 | TAF
羽田空港
TAF RJTT 290841Z 291812 02010KT 9999 FEW030 SCT060
BECMG 0003 08008KT
日本時間30日03-09時:020度から10ノットの風
09-12時:風が変化
12-21時:080度から8ノットの風


那覇空港
TAF ROAH 290842Z 291812 19020KT 8000 FEW010 SCT020 BKN030
TEMPO 0003 22022G35KT 4000 SHRA SCT010 BKN020 FEW020CB
BECMG 0306 30018KT
TEMPO 0306 30022G35KT 2000 +SHRA SCT010 BKN020 FEW020CB
日本時間30日03-12時:190度から20ノットの風

但し、09-12時:一時、220度から22ノット、突風35ノット、
12-15時:風が変化
15-21時:300度から18ノットの風

但し、12-15時:一時、300度から22ノット、突風35ノット、

マウイのカフルイ空港
PHOG 291135Z 291212 07012KT P6SM FEW035 BKN050
FM2000 05015G22KT P6SM SCT050 BKN200
FM0500 07012KT P6SM SCT050 BKN200
ハワイ時間29日02-10時:070度から12ノットの風
10-19時:050度から15ノット、突風22ノット
19時-30日02時:070度から12ノットの風


サイパン空港
PGSN 291120Z 291212 07009KT P6SM VCSH SCT025
マリアナ時間29日22時-30日22時:070度から9ノットの風

コメント
この記事をはてなブックマークに追加

3/28-29の航空気象通報(国内、海外)

2008年03月28日 22時35分52秒 | TAF
羽田空港
TAF RJTT 280838Z 281812 32013KT 9999 FEW030
日本時間29日03-21時:320度から13ノットの風


那覇空港
TAF ROAH 280841Z 281812 11010KT 9999 SCT020
TEMPO 0306 13015G25KT
日本時間29日03-21時:110度から10ノットの風
但し、12-15時:一時、130度から15ノット、突風25ノット


マウイのカフルイ空港
PHOG 281131Z 281212 VRB04KT P6SM FEW060
FM2000 05015G22KT P6SM FEW040 SCT070
FM0500 07012KT P6SM SCT050
ハワイ時間28日02-10時:風向不定4ノットの風
10-19時:050度から15ノット、突風22ノット
19時-29日02時:070度から12ノットの風


サイパン空港
PGSN 281138Z 281212 07011KT P6SM VCSH FEW020 SCT100
マリアナ時間28日22時-29日22時:070度から11ノットの風
コメント
この記事をはてなブックマークに追加

3/27-28の航空気象通報(国内、海外)

2008年03月27日 22時51分32秒 | TAF
羽田空港
TAF RJTT 270850Z 271812 23008KT 8000 FEW015 SCT030 BKN050
BECMG 1821 33008KT
BECMG 0306 10005KT
BECMG 0609 35012KT
TEMPO 0609 SHRA
日本時間28日03時:230度から8ノットの風
03-06時:風が変化
06-12時:330度から8ノットの風
12-15時:風が変化
15-21時:350度から12ノットの風
、但し、15-18時:一時、

那覇空港
TAF ROAH 270843Z 271812 04007KT 9999 FEW030
日本時間28日03-21時:040度から7ノットの風


マウイのカフルイ空港
PHOG 271127Z 271212 06008KT P6SM FEW050 FEW080
FM2000 05015G22KT P6SM FEW035 SCT050
FM0500 05011KT P6SM FEW035 SCT060
ハワイ時間27日02-10時:060度から8ノットの風
10-19時:050度から15ノット、突風22ノット
19時-28日02時:050度から11ノットの風


サイパン空港
PGSN 271143Z 271212 08010KT P6SM FEW020
マリアナ時間27日22時-28日22時:080度から10ノットの風
コメント
この記事をはてなブックマークに追加